Time;durP1;ratioP1;P1;durP2;ratioP2;P2;SDS_P1;SDS_P2;PMS_P1;PMS_P2;Temp;Humidity;BMP_temperature;BMP_pressure;BME280_temperature;BME280_humidity;BME280_pressure;Samples;Min_cycle;Max_cycle;Signal;HPM_P1;HPM_P2
2021/03/20 00:00:15;;;;;;;12.13;8.03;;;1.50;99.90;;;;;;5074405;28;20431;-65
2021/03/20 00:02:40;;;;;;;10.20;8.87;;;1.60;99.90;;;;;;5074514;28;20438;-65
2021/03/20 00:05:07;;;;;;;9.60;6.83;;;1.50;99.90;;;;;;5077838;28;20575;-65
2021/03/20 00:07:33;;;;;;;10.87;8.07;;;1.50;99.90;;;;;;5094634;28;20754;-64
2021/03/20 00:09:59;;;;;;;9.03;8.13;;;1.50;99.90;;;;;;5094457;28;20414;-65
2021/03/20 00:12:25;;;;;;;10.77;9.63;;;1.50;99.90;;;;;;5094784;28;20404;-65
2021/03/20 00:14:50;;;;;;;8.47;7.67;;;1.50;99.90;;;;;;5094537;28;20286;-65
2021/03/20 00:17:16;;;;;;;10.03;8.57;;;1.50;99.90;;;;;;5085332;28;20186;-65
2021/03/20 00:19:41;;;;;;;9.80;8.80;;;1.40;99.90;;;;;;5074174;28;20254;-65
2021/03/20 00:22:07;;;;;;;9.87;8.87;;;1.50;99.90;;;;;;5073681;28;20233;-65
2021/03/20 00:24:32;;;;;;;10.07;8.70;;;1.40;99.90;;;;;;5073515;28;20681;-65
2021/03/20 00:26:58;;;;;;;10.00;8.50;;;1.40;99.90;;;;;;5073315;28;20178;-65
2021/03/20 00:29:24;;;;;;;10.87;9.20;;;1.40;99.90;;;;;;5070820;28;20173;-65
2021/03/20 00:31:49;;;;;;;10.93;9.70;;;1.30;99.90;;;;;;5064508;28;20178;-65
2021/03/20 00:34:15;;;;;;;10.97;8.23;;;1.40;99.90;;;;;;5073819;28;20564;-65
2021/03/20 00:36:40;;;;;;;10.30;7.93;;;1.50;99.90;;;;;;5054407;28;20233;-65
2021/03/20 00:39:07;;;;;;;10.50;9.23;;;1.50;99.90;;;;;;5076159;28;20171;-65
2021/03/20 00:41:34;;;;;;;11.00;8.17;;;1.50;99.90;;;;;;5073874;28;20168;-65
2021/03/20 00:43:59;;;;;;;11.60;9.80;;;1.30;99.90;;;;;;5073379;28;20453;-66
2021/03/20 00:46:25;;;;;;;11.57;9.13;;;1.30;99.90;;;;;;5073016;28;20826;-65
2021/03/20 00:48:51;;;;;;;10.07;8.67;;;1.20;99.90;;;;;;5074147;28;20217;-65
2021/03/20 00:51:16;;;;;;;11.77;8.93;;;1.20;99.90;;;;;;5073187;28;20547;-65
2021/03/20 00:53:42;;;;;;;10.40;8.13;;;1.30;99.90;;;;;;5072886;28;20180;-65
2021/03/20 00:56:07;;;;;;;10.73;9.10;;;1.30;99.90;;;;;;5061266;28;20558;-64
2021/03/20 00:58:38;;;;;;;10.07;8.40;;;1.40;99.90;;;;;;5070328;28;20175;-66
2021/03/20 01:01:14;;;;;;;9.67;8.63;;;1.40;99.90;;;;;;5066299;28;20176;-65
2021/03/20 01:03:41;;;;;;;9.73;8.53;;;1.50;99.90;;;;;;5052643;28;20451;-64
2021/03/20 01:06:08;;;;;;;9.80;8.20;;;1.70;99.90;;;;;;5066289;28;20442;-65
2021/03/20 01:08:34;;;;;;;11.03;9.07;;;1.80;99.90;;;;;;5093205;28;20815;-65
2021/03/20 01:10:59;;;;;;;10.23;9.00;;;1.90;99.90;;;;;;5093698;28;20407;-65
2021/03/20 01:13:25;;;;;;;8.53;7.63;;;2.00;99.90;;;;;;5093354;28;20176;-65
2021/03/20 01:15:51;;;;;;;9.40;7.70;;;1.90;99.90;;;;;;5093034;28;20192;-65
2021/03/20 01:18:17;;;;;;;11.47;8.10;;;1.90;99.90;;;;;;5071578;28;20172;-65
2021/03/20 01:20:44;;;;;;;10.87;8.20;;;2.00;99.90;;;;;;5072883;28;20206;-65
2021/03/20 01:23:11;;;;;;;9.87;7.80;;;2.00;99.90;;;;;;5055921;28;20950;-64
2021/03/20 01:25:37;;;;;;;8.93;8.03;;;2.10;99.90;;;;;;5075918;28;20435;-64
2021/03/20 01:28:03;;;;;;;7.73;6.77;;;2.20;99.90;;;;;;5058812;28;20446;-65
2021/03/20 01:30:33;;;;;;;8.63;7.73;;;2.30;99.90;;;;;;5053604;28;20911;-64
2021/03/20 01:32:59;;;;;;;10.20;8.60;;;2.30;99.90;;;;;;5053317;28;20403;-65
2021/03/20 01:35:25;;;;;;;8.13;6.90;;;2.30;99.90;;;;;;5059285;28;20816;-65
2021/03/20 01:37:51;;;;;;;9.00;8.10;;;2.40;99.90;;;;;;5073089;28;20640;-65
2021/03/20 01:40:22;;;;;;;10.40;7.50;;;2.50;99.90;;;;;;5073013;28;20412;-65
2021/03/20 01:42:48;;;;;;;9.97;8.80;;;2.50;99.90;;;;;;5072854;28;20644;-65
2021/03/20 01:45:27;;;;;;;9.03;7.83;;;2.50;99.90;;;;;;5073148;28;20449;-65
2021/03/20 01:48:00;;;;;;;9.87;7.47;;;2.50;99.90;;;;;;5072407;28;20182;-66
2021/03/20 01:50:33;;;;;;;8.77;7.87;;;2.50;99.90;;;;;;5073072;28;20400;-65
2021/03/20 01:53:04;;;;;;;8.37;6.90;;;2.60;99.90;;;;;;5073419;28;20464;-65
2021/03/20 01:55:31;;;;;;;8.97;7.10;;;2.70;99.90;;;;;;5073210;28;20482;-65
2021/03/20 01:58:01;;;;;;;8.93;7.73;;;2.70;99.90;;;;;;5068295;28;20489;-65
2021/03/20 02:00:35;;;;;;;9.63;7.60;;;2.80;99.90;;;;;;5072526;28;20418;-65
2021/03/20 02:03:04;;;;;;;9.77;7.90;;;2.90;99.90;;;;;;5068429;28;20481;-66
2021/03/20 02:05:32;;;;;;;16.83;8.27;;;2.90;99.90;;;;;;5066552;28;20907;-65
2021/03/20 02:07:59;;;;;;;9.20;7.93;;;3.10;99.90;;;;;;5093114;28;20427;-65
2021/03/20 02:10:30;;;;;;;11.43;8.40;;;3.20;99.90;;;;;;5093369;28;20446;-66
2021/03/20 02:12:58;;;;;;;10.60;7.30;;;3.30;99.90;;;;;;5093202;28;20477;-65
2021/03/20 02:15:37;;;;;;;9.07;8.13;;;3.30;99.90;;;;;;5072180;28;20427;-65
2021/03/20 02:18:31;;;;;;;9.00;7.70;;;3.20;99.90;;;;;;5076620;28;20423;-65
2021/03/20 02:21:11;;;;;;;9.73;8.50;;;3.30;99.90;;;;;;5075669;28;20451;-65
2021/03/20 02:23:39;;;;;;;7.80;7.00;;;3.20;99.90;;;;;;5077343;28;20527;-65
2021/03/20 02:26:08;;;;;;;7.57;6.80;;;3.20;99.90;;;;;;5077090;28;20404;-65
2021/03/20 02:28:51;;;;;;;9.20;6.87;;;3.20;99.90;;;;;;5077591;28;20415;-65
2021/03/20 02:31:20;;;;;;;10.23;7.43;;;3.30;99.90;;;;;;5077568;28;20782;-65
2021/03/20 02:33:55;;;;;;;8.97;8.03;;;3.40;99.90;;;;;;5077306;28;20439;-65
2021/03/20 02:36:43;;;;;;;10.07;7.67;;;3.50;99.90;;;;;;5089679;28;20417;-65
2021/03/20 02:39:41;;;;;;;9.23;8.23;;;3.40;99.90;;;;;;5075849;28;20526;-65
2021/03/20 02:42:21;;;;;;;8.70;7.80;;;3.40;99.90;;;;;;5077122;28;20419;-65
2021/03/20 02:45:04;;;;;;;11.60;8.37;;;3.20;99.90;;;;;;5076950;28;20493;-65
2021/03/20 02:47:38;;;;;;;8.93;7.93;;;3.10;99.90;;;;;;5076676;28;20411;-65
2021/03/20 02:50:13;;;;;;;8.53;7.50;;;3.30;99.90;;;;;;5077345;28;20770;-65
2021/03/20 02:53:18;;;;;;;9.57;8.60;;;3.30;99.90;;;;;;5076171;28;20395;-65
2021/03/20 02:55:48;;;;;;;8.77;7.80;;;3.20;99.90;;;;;;5067297;28;20435;-65
2021/03/20 02:58:17;;;;;;;8.07;7.27;;;3.10;99.90;;;;;;5055777;28;20489;-65
2021/03/20 03:00:59;;;;;;;11.60;9.27;;;3.20;99.90;;;;;;5055328;28;20446;-65
2021/03/20 03:03:29;;;;;;;9.00;8.10;;;3.10;99.90;;;;;;5079269;28;20518;-66
2021/03/20 03:06:00;;;;;;;11.33;8.67;;;3.10;99.90;;;;;;5097497;22;20490;-66
2021/03/20 03:08:40;;;;;;;12.77;8.50;;;3.10;99.90;;;;;;5075537;28;20373;-66
2021/03/20 03:11:10;;;;;;;10.77;8.57;;;3.00;99.90;;;;;;5075337;28;20818;-67
2021/03/20 03:13:40;;;;;;;9.03;7.50;;;3.00;99.90;;;;;;5074183;28;20881;-66
2021/03/20 03:16:22;;;;;;;12.00;9.40;;;3.10;99.90;;;;;;5075517;28;20815;-66
2021/03/20 03:18:56;;;;;;;8.47;7.67;;;3.10;99.90;;;;;;5073059;28;20412;-66
2021/03/20 03:21:26;;;;;;;10.47;8.83;;;3.00;99.90;;;;;;5074713;28;20376;-66
2021/03/20 03:23:51;;;;;;;10.00;8.87;;;2.80;99.90;;;;;;5075063;28;20533;-66
2021/03/20 03:26:25;;;;;;;10.80;9.70;;;2.50;99.90;;;;;;5074036;28;20558;-66
2021/03/20 03:29:00;;;;;;;9.80;8.50;;;2.30;99.90;;;;;;5075396;28;20239;-66
2021/03/20 03:31:55;;;;;;;9.70;7.90;;;2.30;99.90;;;;;;5075055;28;20513;-66
2021/03/20 03:34:45;;;;;;;10.10;8.13;;;2.50;99.90;;;;;;5059080;28;20441;-66
2021/03/20 03:37:21;;;;;;;9.60;8.20;;;2.60;99.90;;;;;;5054690;28;20759;-66
2021/03/20 03:39:58;;;;;;;10.63;8.97;;;2.70;99.90;;;;;;5054800;28;20395;-66
2021/03/20 03:42:24;;;;;;;10.23;8.87;;;2.70;99.90;;;;;;5060533;28;20439;-66
2021/03/20 03:44:53;;;;;;;10.57;9.57;;;2.70;99.90;;;;;;5069149;28;20427;-66
2021/03/20 03:47:26;;;;;;;9.13;8.23;;;2.50;99.90;;;;;;5060856;28;20405;-66
2021/03/20 03:50:00;;;;;;;9.53;8.53;;;2.70;99.90;;;;;;5054624;28;20396;-66
2021/03/20 03:52:25;;;;;;;11.07;8.73;;;2.80;99.90;;;;;;5054404;28;20401;-66
2021/03/20 03:54:51;;;;;;;12.10;8.70;;;2.70;99.90;;;;;;5053007;28;22448;-66
2021/03/20 03:57:39;;;;;;;10.40;9.30;;;2.80;99.90;;;;;;5074179;28;20176;-66
2021/03/20 04:00:09;;;;;;;9.40;8.50;;;2.80;99.90;;;;;;5074391;28;20230;-66
2021/03/20 04:03:10;;;;;;;10.13;9.10;;;3.00;99.90;;;;;;5055960;28;20481;-66
2021/03/20 04:06:00;;;;;;;9.50;8.53;;;2.80;99.90;;;;;;5050604;28;20463;-66
2021/03/20 04:09:02;;;;;;;12.30;9.50;;;2.50;99.90;;;;;;5094873;28;20394;-66
2021/03/20 04:11:58;;;;;;;9.20;8.30;;;2.30;99.90;;;;;;5076366;28;21012;-66
2021/03/20 04:14:41;;;;;;;10.70;9.00;;;2.50;99.90;;;;;;5082050;28;20977;-66
2021/03/20 04:17:15;;;;;;;8.97;8.07;;;2.50;99.90;;;;;;5073186;28;20402;-66
2021/03/20 04:19:40;;;;;;;8.83;7.97;;;2.70;99.90;;;;;;5074118;28;20395;-67
2021/03/20 04:22:19;;;;;;;9.03;8.13;;;2.60;99.90;;;;;;5074075;28;20754;-66
2021/03/20 04:25:01;;;;;;;8.93;8.03;;;2.50;99.90;;;;;;5063454;28;20190;-66
2021/03/20 04:27:35;;;;;;;10.50;9.50;;;2.60;99.90;;;;;;5053526;28;20423;-66
2021/03/20 04:30:23;;;;;;;8.10;7.23;;;2.50;99.90;;;;;;5053794;28;20400;-66
2021/03/20 04:33:18;;;;;;;8.53;7.73;;;2.80;99.90;;;;;;5063175;28;20408;-66
2021/03/20 04:35:58;;;;;;;9.10;8.30;;;2.90;99.90;;;;;;5060890;28;20433;-66
2021/03/20 04:38:25;;;;;;;10.00;8.33;;;2.60;99.90;;;;;;5067247;28;20411;-66
2021/03/20 04:41:02;;;;;;;8.80;7.77;;;2.30;99.90;;;;;;5073908;28;20792;-66
2021/03/20 04:43:31;;;;;;;8.93;8.03;;;2.30;99.90;;;;;;5073997;28;20777;-66
2021/03/20 04:46:06;;;;;;;8.10;7.30;;;2.40;99.90;;;;;;5073384;28;20502;-66
2021/03/20 04:48:38;;;;;;;10.37;9.30;;;2.60;99.90;;;;;;5072436;28;20405;-66
2021/03/20 04:51:25;;;;;;;9.83;8.77;;;2.60;99.90;;;;;;5073668;28;20419;-66
2021/03/20 04:54:14;;;;;;;8.80;7.90;;;2.70;99.90;;;;;;5066177;28;20462;-66
2021/03/20 04:56:53;;;;;;;8.70;7.80;;;2.70;99.90;;;;;;5053755;28;20383;-66
2021/03/20 04:59:49;;;;;;;9.60;8.60;;;2.60;99.90;;;;;;5053985;28;20391;-66
2021/03/20 05:02:30;;;;;;;9.13;8.23;;;2.50;99.90;;;;;;5053372;28;20380;-66
2021/03/20 05:05:04;;;;;;;8.77;7.90;;;2.20;99.90;;;;;;5093216;28;20433;-66
2021/03/20 05:07:31;;;;;;;10.47;9.40;;;2.10;99.90;;;;;;5057732;28;20412;-66
2021/03/20 05:09:58;;;;;;;8.77;7.87;;;2.20;99.90;;;;;;5065066;28;20525;-66
2021/03/20 05:12:27;;;;;;;9.20;8.30;;;2.40;99.90;;;;;;5073492;28;20891;-66
2021/03/20 05:15:23;;;;;;;8.20;7.40;;;2.50;99.90;;;;;;5073021;28;20479;-66
2021/03/20 05:17:48;;;;;;;9.30;8.33;;;2.30;99.90;;;;;;5072677;28;20505;-66
2021/03/20 05:20:14;;;;;;;9.50;8.60;;;2.30;99.90;;;;;;5073185;28;20434;-66
2021/03/20 05:22:40;;;;;;;8.53;7.73;;;2.40;99.90;;;;;;5072532;28;20243;-67
2021/03/20 05:25:07;;;;;;;9.60;8.13;;;2.50;99.90;;;;;;5069456;28;20423;-66
2021/03/20 05:27:34;;;;;;;8.37;7.57;;;2.40;99.90;;;;;;5057176;28;20428;-66
2021/03/20 05:30:00;;;;;;;8.63;7.50;;;2.20;99.90;;;;;;5093061;28;20573;-66
2021/03/20 05:32:33;;;;;;;9.00;8.10;;;2.20;99.90;;;;;;5093525;28;20893;-66
2021/03/20 05:35:02;;;;;;;9.20;8.30;;;2.20;99.90;;;;;;5089253;28;20182;-66
2021/03/20 05:37:32;;;;;;;8.80;8.00;;;2.20;99.90;;;;;;5073413;28;20426;-66
2021/03/20 05:39:58;;;;;;;8.00;7.30;;;2.10;99.90;;;;;;5072606;28;20433;-66
2021/03/20 05:42:56;;;;;;;9.43;7.63;;;2.00;99.90;;;;;;5072956;28;20466;-66
2021/03/20 05:45:33;;;;;;;10.03;8.43;;;1.90;99.90;;;;;;5091426;28;20964;-66
2021/03/20 05:48:27;;;;;;;8.60;7.80;;;2.00;99.90;;;;;;5074699;28;20408;-66
2021/03/20 05:51:25;;;;;;;9.63;7.90;;;1.90;99.90;;;;;;5077132;28;20767;-66
2021/03/20 05:54:29;;;;;;;9.40;8.40;;;1.70;99.90;;;;;;5076888;28;20852;-66
2021/03/20 05:57:19;;;;;;;9.27;8.27;;;1.60;99.90;;;;;;5076947;28;20797;-66
2021/03/20 06:00:18;;;;;;;8.97;7.60;;;1.80;99.90;;;;;;5076168;28;20414;-66
2021/03/20 06:03:09;;;;;;;9.07;8.17;;;1.90;99.90;;;;;;5058968;28;20457;-66
2021/03/20 06:05:51;;;;;;;10.13;8.80;;;1.90;99.90;;;;;;5075671;28;20454;-67
2021/03/20 06:08:40;;;;;;;8.60;7.80;;;2.00;99.90;;;;;;5096909;28;20391;-67
2021/03/20 06:11:23;;;;;;;9.33;8.37;;;2.00;99.90;;;;;;5072618;28;20418;-66
2021/03/20 06:14:04;;;;;;;8.43;7.63;;;1.80;99.90;;;;;;5076457;28;20928;-66
2021/03/20 06:16:35;;;;;;;8.67;7.87;;;1.90;99.90;;;;;;5076257;28;20470;-66
2021/03/20 06:19:11;;;;;;;11.50;8.00;;;1.90;99.90;;;;;;5075808;28;20410;-66
2021/03/20 06:21:55;;;;;;;8.13;7.33;;;2.10;99.90;;;;;;5060389;28;20418;-67
2021/03/20 06:24:51;;;;;;;8.53;7.73;;;1.90;99.90;;;;;;5059925;28;20452;-66
2021/03/20 06:27:20;;;;;;;9.20;8.30;;;2.00;99.90;;;;;;5071598;28;20411;-66
2021/03/20 06:30:08;;;;;;;9.10;7.20;;;2.10;99.90;;;;;;5076421;28;20762;-66
2021/03/20 06:32:47;;;;;;;8.20;7.43;;;2.30;99.90;;;;;;5059922;28;20907;-66
2021/03/20 06:35:15;;;;;;;9.40;6.90;;;2.20;99.90;;;;;;5070246;28;20420;-66
2021/03/20 06:37:47;;;;;;;7.00;6.40;;;2.20;99.90;;;;;;5070644;28;20972;-66
2021/03/20 06:40:27;;;;;;;8.80;6.70;;;2.10;99.90;;;;;;5056121;28;20393;-67
2021/03/20 06:42:53;;;;;;;6.57;5.97;;;2.00;99.90;;;;;;5056433;28;20432;-66
2021/03/20 06:45:19;;;;;;;7.53;6.83;;;2.20;99.90;;;;;;5056090;28;20423;-66
2021/03/20 06:47:51;;;;;;;9.10;7.07;;;2.10;99.90;;;;;;5061946;28;20759;-66
2021/03/20 06:50:39;;;;;;;8.47;7.67;;;2.00;99.90;;;;;;5096467;28;20802;-66
2021/03/20 06:53:06;;;;;;;10.47;6.47;;;2.10;99.90;;;;;;5095987;28;20447;-65
2021/03/20 06:55:37;;;;;;;6.67;6.03;;;2.20;99.90;;;;;;5095949;28;20420;-66
2021/03/20 06:58:18;;;;;;;6.63;6.00;;;2.30;99.90;;;;;;5073883;28;20415;-66
2021/03/20 07:00:44;;;;;;;8.20;5.90;;;2.40;99.90;;;;;;5055824;28;20434;-66
2021/03/20 07:03:13;;;;;;;6.20;5.67;;;2.20;99.90;;;;;;5055437;28;20456;-66
2021/03/20 07:06:07;;;;;;;5.47;4.70;;;2.20;99.90;;;;;;5057803;28;20446;-66
2021/03/20 07:08:45;;;;;;;5.83;5.33;;;1.90;99.90;;;;;;5069969;28;20430;-66
2021/03/20 07:11:34;;;;;;;4.67;4.27;;;1.90;99.90;;;;;;5055634;28;20526;-66
2021/03/20 07:14:02;;;;;;;5.40;4.90;;;2.00;99.90;;;;;;5059493;28;20402;-66
2021/03/20 07:16:30;;;;;;;6.53;5.07;;;1.90;99.90;;;;;;5061456;28;20429;-65
2021/03/20 07:19:11;;;;;;;5.80;5.27;;;2.10;99.90;;;;;;5075796;28;20405;-67
2021/03/20 07:21:39;;;;;;;5.33;4.83;;;2.00;99.90;;;;;;5075297;28;20387;-66
2021/03/20 07:24:16;;;;;;;5.87;5.30;;;2.00;99.90;;;;;;5068752;28;20477;-66
2021/03/20 07:26:59;;;;;;;6.50;5.60;;;2.00;99.90;;;;;;5056455;28;20779;-66
2021/03/20 07:30:08;;;;;;;7.30;6.20;;;2.20;99.90;;;;;;5075257;28;20398;-66
2021/03/20 07:32:37;;;;;;;6.87;5.20;;;2.10;99.90;;;;;;5032971;28;20874;-66
2021/03/20 07:35:24;;;;;;;4.80;4.33;;;2.30;99.90;;;;;;5069901;28;20434;-66
2021/03/20 07:37:52;;;;;;;6.80;4.47;;;2.60;99.90;;;;;;5066356;28;20427;-66
2021/03/20 07:40:17;;;;;;;6.77;5.50;;;2.50;99.90;;;;;;5074753;28;20795;-66
2021/03/20 07:42:43;;;;;;;5.90;4.50;;;2.50;99.90;;;;;;5075089;28;20477;-66
2021/03/20 07:45:29;;;;;;;839.30;411.30;;;2.60;99.90;;;;;;5074966;28;20189;-66
2021/03/20 07:47:54;;;;;;;33.60;17.10;;;2.60;99.90;;;;;;5066803;28;20169;-66
2021/03/20 07:50:20;;;;;;;16.77;9.17;;;2.60;99.90;;;;;;5073768;28;20411;-66
2021/03/20 07:53:16;;;;;;;40.37;30.33;;;2.80;99.90;;;;;;5083322;28;20226;-66
2021/03/20 07:56:03;;;;;;;10.17;9.23;;;2.80;99.90;;;;;;5074476;28;20499;-66
2021/03/20 07:58:51;;;;;;;10.40;8.53;;;2.90;99.90;;;;;;5074420;28;20404;-66
2021/03/20 08:01:19;;;;;;;9.10;5.13;;;3.10;99.90;;;;;;5074588;28;20395;-66
2021/03/20 08:03:52;;;;;;;6.63;5.50;;;3.20;99.90;;;;;;5074816;28;21032;-66
2021/03/20 08:06:24;;;;;;;6.63;5.37;;;3.10;99.90;;;;;;5080193;28;20915;-66
2021/03/20 08:09:09;;;;;;;6.03;5.13;;;2.80;99.90;;;;;;5094538;28;20376;-66
2021/03/20 08:11:35;;;;;;;7.33;5.50;;;2.90;99.90;;;;;;5094194;28;20521;-66
2021/03/20 08:14:13;;;;;;;5.10;4.70;;;3.10;99.90;;;;;;5077531;28;20751;-66
2021/03/20 08:16:41;;;;;;;5.73;4.27;;;2.90;99.90;;;;;;5074041;28;20426;-66
2021/03/20 08:19:12;;;;;;;6.10;4.40;;;2.90;99.90;;;;;;5056107;28;20505;-66
2021/03/20 08:22:07;;;;;;;7.00;6.50;;;2.70;99.90;;;;;;5073457;28;21281;-66
2021/03/20 08:24:51;;;;;;;4.57;3.57;;;2.60;99.90;;;;;;5074396;28;20430;-66
2021/03/20 08:27:32;;;;;;;3.60;3.13;;;2.60;99.90;;;;;;5067502;28;20404;-66
2021/03/20 08:30:18;;;;;;;4.50;3.50;;;2.50;99.90;;;;;;5065981;28;20431;-66
2021/03/20 08:32:50;;;;;;;4.43;4.03;;;2.60;99.90;;;;;;5073833;28;20954;-66
2021/03/20 08:35:33;;;;;;;4.40;3.83;;;2.40;99.90;;;;;;5067362;28;20921;-66
2021/03/20 08:38:20;;;;;;;3.67;3.30;;;2.70;99.90;;;;;;5053569;28;20390;-66
2021/03/20 08:41:06;;;;;;;5.43;4.60;;;2.80;99.90;;;;;;5053823;28;20390;-66
2021/03/20 08:43:51;;;;;;;4.90;3.53;;;2.70;99.90;;;;;;5058542;28;20819;-67
2021/03/20 08:46:54;;;;;;;5.20;3.63;;;2.90;99.70;;;;;;5058294;28;20441;-68
2021/03/20 08:49:44;;;;;;;6.33;4.43;;;2.80;99.30;;;;;;5064936;28;20412;-68
2021/03/20 08:52:27;;;;;;;5.63;4.00;;;2.80;99.60;;;;;;5071636;28;20473;-67
2021/03/20 08:55:17;;;;;;;4.00;3.60;;;2.90;98.70;;;;;;5035939;28;20802;-68
2021/03/20 08:57:55;;;;;;;4.10;3.50;;;2.80;97.90;;;;;;5053246;28;20388;-67
2021/03/20 09:00:29;;;;;;;4.40;3.70;;;2.80;98.10;;;;;;5053607;28;20409;-67
2021/03/20 09:03:01;;;;;;;8.50;4.43;;;2.80;97.60;;;;;;5053092;28;20457;-67
2021/03/20 09:05:34;;;;;;;3.20;3.00;;;3.10;98.50;;;;;;5051545;22;576029;-64
2021/03/20 09:08:28;;;;;;;6.90;3.97;;;3.20;96.80;;;;;;5072908;28;20233;-66
2021/03/20 09:11:22;;;;;;;5.03;4.20;;;3.10;97.70;;;;;;5073981;28;20487;-65
2021/03/20 09:13:53;;;;;;;5.07;3.20;;;2.90;96.80;;;;;;5070376;28;20409;-65
2021/03/20 09:16:33;;;;;;;4.40;4.00;;;3.00;96.20;;;;;;5069634;28;20785;-65
2021/03/20 09:19:04;;;;;;;4.17;3.77;;;3.10;96.70;;;;;;5053407;28;20739;-65
2021/03/20 09:21:32;;;;;;;5.47;4.70;;;2.90;97.20;;;;;;5066707;28;20806;-65
2021/03/20 09:24:07;;;;;;;4.00;3.70;;;2.70;97.70;;;;;;5046719;28;20487;-65
2021/03/20 09:26:43;;;;;;;4.40;4.00;;;2.90;97.30;;;;;;5053646;28;20420;-65
2021/03/20 09:29:17;;;;;;;5.63;3.70;;;3.30;96.70;;;;;;5053766;28;20836;-65
2021/03/20 09:31:54;;;;;;;4.20;3.80;;;3.70;96.60;;;;;;5054187;28;20389;-66
2021/03/20 09:34:29;;;;;;;4.27;3.60;;;4.20;96.30;;;;;;5053983;28;20900;-64
2021/03/20 09:36:56;;;;;;;4.00;3.60;;;4.70;95.50;;;;;;5052592;28;20897;-66
2021/03/20 09:39:44;;;;;;;3.07;2.87;;;4.90;93.20;;;;;;5053246;28;20409;-65
2021/03/20 09:42:28;;;;;;;2.83;2.63;;;4.60;91.10;;;;;;5035060;28;20420;-66
2021/03/20 09:44:58;;;;;;;2.43;2.23;;;4.50;87.20;;;;;;5047910;28;20500;-65
2021/03/20 09:47:31;;;;;;;5.03;2.90;;;4.30;84.50;;;;;;5051191;28;20421;-65
2021/03/20 09:50:00;;;;;;;5.23;3.20;;;4.30;84.60;;;;;;5053542;28;20416;-64
2021/03/20 09:52:44;;;;;;;3.63;3.33;;;4.60;87.40;;;;;;5052957;28;20417;-66
2021/03/20 09:55:28;;;;;;;3.43;3.13;;;4.50;88.50;;;;;;5053459;28;20436;-66
2021/03/20 09:57:54;;;;;;;3.10;2.90;;;4.20;88.50;;;;;;5053092;28;20401;-64
2021/03/20 10:00:44;;;;;;;3.53;3.23;;;4.20;84.30;;;;;;5052907;28;20837;-65
2021/03/20 10:03:10;;;;;;;3.30;3.03;;;4.30;86.00;;;;;;5052805;28;20440;-65
2021/03/20 10:05:36;;;;;;;6.33;3.13;;;4.50;85.50;;;;;;5056586;28;20439;-65
2021/03/20 10:08:18;;;;;;;3.77;3.33;;;4.40;86.00;;;;;;5072558;28;20396;-65
2021/03/20 10:10:48;;;;;;;9.03;3.27;;;4.80;87.20;;;;;;5061714;28;20167;-64
2021/03/20 10:13:22;;;;;;;3.10;2.80;;;4.60;82.90;;;;;;5055096;28;20420;-65
2021/03/20 10:16:00;;;;;;;3.43;2.87;;;4.40;83.70;;;;;;5065882;28;20429;-65
2021/03/20 10:18:30;;;;;;;3.23;2.93;;;4.30;83.30;;;;;;5028209;28;20417;-66
2021/03/20 10:21:06;;;;;;;5.50;2.87;;;4.60;86.00;;;;;;5034060;28;20405;-65
2021/03/20 10:23:57;;;;;;;4.53;2.70;;;4.90;84.30;;;;;;5058398;28;21031;-66
2021/03/20 10:26:25;;;;;;;3.57;2.80;;;5.00;83.50;;;;;;5061333;28;20436;-66
2021/03/20 10:28:58;;;;;;;3.03;2.60;;;5.00;77.60;;;;;;5072998;28;20396;-66
2021/03/20 10:31:27;;;;;;;3.60;2.57;;;4.80;73.70;;;;;;5072674;28;20403;-66
2021/03/20 10:34:09;;;;;;;2.50;2.30;;;4.70;75.00;;;;;;5072822;28;20400;-66
2021/03/20 10:36:38;;;;;;;3.20;2.90;;;4.80;75.60;;;;;;5058511;28;20957;-66
2021/03/20 10:39:19;;;;;;;4.03;3.73;;;4.50;77.10;;;;;;5038509;28;20765;-66
2021/03/20 10:41:46;;;;;;;2.77;2.57;;;4.60;78.40;;;;;;5038481;28;20385;-66
2021/03/20 10:44:25;;;;;;;5.53;3.07;;;4.80;80.00;;;;;;5056269;28;20547;-65
2021/03/20 10:47:01;;;;;;;4.00;2.70;;;4.80;76.30;;;;;;5055824;28;20837;-66
2021/03/20 10:49:27;;;;;;;3.33;2.50;;;4.60;75.50;;;;;;5056092;28;20396;-66
2021/03/20 10:51:55;;;;;;;2.63;2.33;;;5.30;75.20;;;;;;5055769;28;20461;-65
2021/03/20 10:54:29;;;;;;;2.90;2.60;;;6.00;73.80;;;;;;5055791;28;20408;-65
2021/03/20 10:57:04;;;;;;;3.40;2.50;;;6.80;73.20;;;;;;5049561;28;20771;-66
2021/03/20 10:59:36;;;;;;;3.20;2.50;;;7.10;68.10;;;;;;5054806;28;20409;-65
2021/03/20 11:02:21;;;;;;;3.50;3.20;;;7.50;64.80;;;;;;5055834;28;20409;-65
2021/03/20 11:04:46;;;;;;;3.40;2.63;;;7.40;65.10;;;;;;5055716;28;20413;-66
2021/03/20 11:07:17;;;;;;;6.03;3.13;;;7.50;65.40;;;;;;5055696;28;20433;-66
2021/03/20 11:09:43;;;;;;;3.73;2.80;;;6.90;66.00;;;;;;5055103;28;20170;-66
2021/03/20 11:12:27;;;;;;;5.70;5.03;;;6.20;65.40;;;;;;5056153;28;20739;-66
2021/03/20 11:14:57;;;;;;;4.10;2.83;;;6.00;67.50;;;;;;5056366;28;20408;-66
2021/03/20 11:17:26;;;;;;;2.60;2.40;;;6.40;71.90;;;;;;5043661;28;20805;-66
2021/03/20 11:20:43;;;;;;;3.10;2.37;;;7.30;67.00;;;;;;5056332;28;20410;-65
2021/03/20 11:23:27;;;;;;;3.23;2.93;;;8.00;61.90;;;;;;5030463;28;20460;-66
2021/03/20 11:25:53;;;;;;;3.00;2.70;;;9.40;65.00;;;;;;5056818;28;20475;-66
2021/03/20 11:28:30;;;;;;;3.10;2.83;;;11.10;57.10;;;;;;5055610;28;20408;-66
2021/03/20 11:30:57;;;;;;;4.50;3.30;;;11.20;56.20;;;;;;5055543;28;20173;-66
2021/03/20 11:33:29;;;;;;;3.10;2.83;;;11.60;54.50;;;;;;5055200;28;20461;-66
2021/03/20 11:35:58;;;;;;;3.50;3.03;;;11.50;55.70;;;;;;5055553;28;20512;-65
2021/03/20 11:38:25;;;;;;;3.43;2.73;;;11.50;52.70;;;;;;5048483;28;20518;-66
2021/03/20 11:41:03;;;;;;;3.20;2.63;;;12.30;51.60;;;;;;5054595;28;20428;-65
2021/03/20 11:43:33;;;;;;;2.97;2.67;;;11.90;50.70;;;;;;5054421;28;20960;-66
2021/03/20 11:46:28;;;;;;;3.17;2.93;;;10.80;53.40;;;;;;5054383;28;20417;-66
2021/03/20 11:49:03;;;;;;;4.97;3.40;;;11.20;53.10;;;;;;5054733;28;20384;-66
2021/03/20 11:51:39;;;;;;;4.93;3.20;;;10.80;53.00;;;;;;5054493;28;20783;-66
2021/03/20 11:54:18;;;;;;;4.33;3.03;;;10.40;50.40;;;;;;5054994;28;20381;-66
2021/03/20 11:56:59;;;;;;;4.97;4.30;;;9.90;52.70;;;;;;5054365;28;20464;-65
2021/03/20 11:59:33;;;;;;;5.83;4.27;;;11.40;51.80;;;;;;5054278;28;20385;-66
2021/03/20 12:01:59;;;;;;;3.50;3.20;;;12.30;50.50;;;;;;5036471;28;20409;-66
2021/03/20 12:04:28;;;;;;;3.13;2.83;;;12.50;49.10;;;;;;5053779;28;20444;-66
2021/03/20 12:07:22;;;;;;;3.20;2.90;;;12.00;49.50;;;;;;5053661;28;20272;-66
2021/03/20 12:09:49;;;;;;;3.33;3.03;;;11.90;50.00;;;;;;5054561;28;20385;-66
2021/03/20 12:12:15;;;;;;;6.70;3.30;;;11.20;48.90;;;;;;5054219;28;20415;-66
2021/03/20 12:14:41;;;;;;;4.67;4.27;;;12.50;49.60;;;;;;5059034;28;20504;-66
2021/03/20 12:17:09;;;;;;;4.70;3.73;;;12.40;48.90;;;;;;5068271;28;20194;-66
2021/03/20 12:20:07;;;;;;;6.10;5.50;;;13.30;48.20;;;;;;5074125;28;20166;-66
2021/03/20 12:22:50;;;;;;;4.77;3.30;;;13.60;46.50;;;;;;5067142;28;20386;-66
2021/03/20 12:25:29;;;;;;;3.80;3.50;;;13.00;46.90;;;;;;5054258;28;20482;-66
2021/03/20 12:28:26;;;;;;;3.37;2.90;;;14.10;46.30;;;;;;5043734;28;20418;-66
2021/03/20 12:31:27;;;;;;;3.40;3.10;;;14.70;43.80;;;;;;5053178;28;20403;-66
2021/03/20 12:34:00;;;;;;;3.33;3.03;;;14.40;42.90;;;;;;5053836;28;20403;-66
2021/03/20 12:36:42;;;;;;;5.13;3.67;;;13.80;44.10;;;;;;5057910;28;20434;-67
2021/03/20 12:39:12;;;;;;;3.97;3.67;;;12.70;46.60;;;;;;5053733;28;20414;-66
2021/03/20 12:41:40;;;;;;;5.77;3.70;;;13.60;45.50;;;;;;5054010;28;20771;-66
2021/03/20 12:44:22;;;;;;;3.57;3.27;;;15.00;44.80;;;;;;5053641;28;20976;-66
2021/03/20 12:46:59;;;;;;;3.97;3.57;;;16.10;42.70;;;;;;5057104;28;20433;-66
2021/03/20 12:49:30;;;;;;;4.90;3.50;;;15.30;45.40;;;;;;5073578;28;20383;-65
2021/03/20 12:52:20;;;;;;;3.50;3.20;;;15.40;43.50;;;;;;5072073;28;20761;-66
2021/03/20 12:54:49;;;;;;;4.97;4.47;;;13.70;44.90;;;;;;5060859;28;20937;-65
2021/03/20 12:57:29;;;;;;;3.60;3.30;;;11.40;47.80;;;;;;5073376;28;20408;-65
2021/03/20 12:59:59;;;;;;;5.23;4.93;;;10.50;49.10;;;;;;5073475;28;20419;-65
2021/03/20 13:02:24;;;;;;;4.10;3.70;;;11.50;48.80;;;;;;5073608;28;20399;-66
2021/03/20 13:04:51;;;;;;;4.77;3.60;;;13.40;46.30;;;;;;5073251;28;20411;-66
2021/03/20 13:07:18;;;;;;;4.07;3.77;;;13.50;44.70;;;;;;5057326;28;20254;-67
2021/03/20 13:09:44;;;;;;;3.63;3.33;;;15.00;44.10;;;;;;5053001;28;20861;-66
2021/03/20 13:12:12;;;;;;;3.83;3.30;;;16.40;43.20;;;;;;5052794;28;20406;-66
2021/03/20 13:14:38;;;;;;;4.30;3.90;;;15.60;42.70;;;;;;5053060;28;21028;-66
2021/03/20 13:17:05;;;;;;;5.17;3.80;;;14.00;43.10;;;;;;5052708;28;20523;-66
2021/03/20 13:19:31;;;;;;;3.83;3.53;;;13.50;46.50;;;;;;5065317;28;20427;-65
2021/03/20 13:21:57;;;;;;;4.37;3.50;;;12.70;46.00;;;;;;5072810;28;20405;-65
2021/03/20 13:24:23;;;;;;;3.87;3.57;;;12.20;45.90;;;;;;5073179;28;20444;-66
2021/03/20 13:26:49;;;;;;;4.80;3.67;;;12.30;47.90;;;;;;5055674;28;20433;-65
2021/03/20 13:29:15;;;;;;;3.70;3.40;;;13.00;46.10;;;;;;5052445;28;20409;-66
2021/03/20 13:31:41;;;;;;;4.20;3.90;;;12.60;45.60;;;;;;5053070;28;20170;-65
2021/03/20 13:34:07;;;;;;;3.70;3.37;;;12.70;46.50;;;;;;5052749;28;20406;-65